Antioch, South Carolina
Current Conditions -  °F | °C
As of 1:35 PM on Thursday 18 Dec 2014 (Local Time) from KCDN Reporting Station
Clear Clear  
Wind Chill: 54°   Ceiling: Unl
Heat Index: 54°   Visibility: 10mi
Dew Point: 27°   Wind: 6mph
Humidity: 35%   Direction: 150°SSE
Pressure: 30.11"   Gusts: NA
Location:  34.2974°N, 80.6089°W
Report Text: KCDN 181835Z AUTO 15005KT 10SM CLR 12/M03 A3011 RMK AO2 TSNO
Loading
Personal Weather Stations






























Interactive Weather Map New forecast layout! Learn more

10-Day Weather Forecast

Advertisements
Track Severe Weather on mobile